createdAt,value
2023-04-18T00:00:39.935Z,13.00
2023-04-18T00:03:41.968Z,13.03
2023-04-18T00:06:43.967Z,13.06
2023-04-18T00:09:45.838Z,13.11
2023-04-18T00:12:47.844Z,13.18
2023-04-18T00:15:49.649Z,13.16
2023-04-18T00:18:52.735Z,13.12
2023-04-18T00:21:54.547Z,12.86
2023-04-18T00:24:57.596Z,13.07
2023-04-18T00:27:59.435Z,12.94
2023-04-18T00:31:01.276Z,12.99
2023-04-18T00:34:03.139Z,12.83
2023-04-18T00:37:04.947Z,12.98
2023-04-18T00:40:07.357Z,12.76
2023-04-18T00:43:09.214Z,12.91
2023-04-18T00:46:11.241Z,12.77
2023-04-18T00:49:13.120Z,12.77
2023-04-18T00:52:16.491Z,12.85
2023-04-18T00:55:18.870Z,12.84
2023-04-18T00:58:20.831Z,12.83
2023-04-18T01:01:23.460Z,12.81
2023-04-18T01:04:25.457Z,12.73
2023-04-18T01:07:28.203Z,12.82
2023-04-18T01:10:32.098Z,12.29
2023-04-18T01:13:34.022Z,12.79
2023-04-18T01:16:38.962Z,12.68
2023-04-18T01:19:42.531Z,12.77
2023-04-18T01:22:44.651Z,12.60
2023-04-18T01:25:49.336Z,12.62
2023-04-18T01:28:54.067Z,12.48
2023-04-18T01:31:57.333Z,11.84
2023-04-18T01:34:59.500Z,12.58
2023-04-18T01:38:01.978Z,12.37
2023-04-18T01:41:07.441Z,12.50
2023-04-18T01:44:09.264Z,12.54
2023-04-18T01:47:11.041Z,12.35
2023-04-18T01:50:13.013Z,12.48
2023-04-18T01:53:15.327Z,12.45
2023-04-18T01:56:19.201Z,12.11
2023-04-18T01:59:22.467Z,12.32
2023-04-18T02:02:24.736Z,12.31
2023-04-18T02:05:29.771Z,12.40
2023-04-18T02:08:35.562Z,12.30
2023-04-18T02:11:40.712Z,12.28
2023-04-18T02:14:42.571Z,12.22
2023-04-18T02:17:44.921Z,12.22
2023-04-18T02:20:47.433Z,12.27
2023-04-18T02:23:49.426Z,12.20
2023-04-18T02:26:51.210Z,12.07
2023-04-18T02:29:53.808Z,12.19
2023-04-18T02:32:59.008Z,12.23
2023-04-18T02:36:01.875Z,12.17
2023-04-18T02:39:03.855Z,12.17
2023-04-18T02:42:05.747Z,12.19
2023-04-18T02:45:08.950Z,12.26
2023-04-18T02:48:11.038Z,12.34
2023-04-18T02:51:13.104Z,12.28
2023-04-18T02:54:15.188Z,12.20
2023-04-18T02:57:29.640Z,12.05
2023-04-18T03:00:46.333Z,11.71
2023-04-18T03:04:08.023Z,11.69
2023-04-18T03:07:14.152Z,12.01
2023-04-18T03:10:16.770Z,11.89
2023-04-18T03:13:18.721Z,11.99
2023-04-18T03:16:20.983Z,12.05
2023-04-18T03:19:23.807Z,11.95
2023-04-18T03:22:27.702Z,11.99
2023-04-18T03:25:34.422Z,12.05
2023-04-18T03:28:37.112Z,11.44
2023-04-18T03:31:39.567Z,11.99
2023-04-18T03:34:42.840Z,12.14
2023-04-18T03:37:46.484Z,12.23
2023-04-18T03:40:55.365Z,12.13
2023-04-18T03:44:05.110Z,12.14
2023-04-18T03:47:10.377Z,12.22
2023-04-18T03:50:15.891Z,12.21
2023-04-18T03:53:19.762Z,12.05
2023-04-18T03:56:23.396Z,12.32
2023-04-18T03:59:27.675Z,12.32
2023-04-18T04:02:30.575Z,12.29
2023-04-18T04:05:32.954Z,12.43
2023-04-18T04:08:34.809Z,12.44
2023-04-18T04:11:37.560Z,12.10
2023-04-18T04:14:42.091Z,12.47
2023-04-18T04:17:44.810Z,12.44
2023-04-18T04:20:48.090Z,12.59
2023-04-18T04:24:07.039Z,12.59
2023-04-18T04:27:18.850Z,12.63
2023-04-18T04:30:21.595Z,12.60
2023-04-18T04:33:25.660Z,12.50
2023-04-18T04:36:30.165Z,12.49
2023-04-18T04:39:34.063Z,12.58
2023-04-18T04:42:54.197Z,12.43
2023-04-18T04:46:07.798Z,12.26
2023-04-18T04:49:09.673Z,12.54
2023-04-18T04:52:11.698Z,12.63
2023-04-18T04:55:13.556Z,12.65
2023-04-18T04:58:17.444Z,12.54
2023-04-18T05:01:35.600Z,12.78
2023-04-18T05:04:37.559Z,12.84
2023-04-18T05:07:39.844Z,12.77
2023-04-18T05:10:43.145Z,12.80
2023-04-18T05:13:46.241Z,12.77
2023-04-18T05:16:48.400Z,12.95
2023-04-18T05:19:51.084Z,12.78
2023-04-18T05:22:52.909Z,12.83
2023-04-18T05:25:54.700Z,12.78
2023-04-18T05:28:56.489Z,12.86
2023-04-18T05:32:03.683Z,12.84
2023-04-18T05:35:07.094Z,12.94
2023-04-18T05:38:08.862Z,13.03
2023-04-18T05:41:10.643Z,13.27
2023-04-18T05:44:13.470Z,13.36
2023-04-18T05:47:15.634Z,13.46
2023-04-18T05:50:20.158Z,13.72
2023-04-18T05:53:21.990Z,14.09
2023-04-18T05:56:23.873Z,14.28
2023-04-18T05:59:27.001Z,14.23
2023-04-18T06:02:28.872Z,14.16
2023-04-18T06:05:31.344Z,14.27
2023-04-18T06:08:33.321Z,14.38
2023-04-18T06:11:35.815Z,14.31
2023-04-18T06:14:37.555Z,14.09
2023-04-18T06:17:39.697Z,14.20
2023-04-18T06:20:42.205Z,14.26
2023-04-18T06:23:44.024Z,14.32
2023-04-18T06:26:45.821Z,14.52
2023-04-18T06:29:47.680Z,14.54
2023-04-18T06:32:49.640Z,14.46
2023-04-18T06:35:51.741Z,14.52
2023-04-18T06:38:53.572Z,14.37
2023-04-18T06:41:55.534Z,14.78
2023-04-18T06:45:06.700Z,14.61
2023-04-18T06:48:10.788Z,14.59
2023-04-18T06:51:12.854Z,14.70
2023-04-18T06:54:14.798Z,14.73
2023-04-18T06:57:16.738Z,15.23
2023-04-18T07:00:18.769Z,15.28
2023-04-18T07:03:20.768Z,15.01
2023-04-18T07:06:22.717Z,15.27
2023-04-18T07:09:24.603Z,15.29
2023-04-18T07:12:27.235Z,15.31
2023-04-18T07:15:29.059Z,15.16
2023-04-18T07:18:38.066Z,15.33
2023-04-18T07:21:42.658Z,15.30
2023-04-18T07:24:44.515Z,15.31
2023-04-18T07:27:46.471Z,15.31
2023-04-18T07:30:48.403Z,15.25
2023-04-18T07:33:50.312Z,15.35
2023-04-18T07:36:52.115Z,15.55
2023-04-18T07:39:53.911Z,15.32
2023-04-18T07:42:55.818Z,15.75
2023-04-18T07:45:57.710Z,15.84
2023-04-18T07:49:00.131Z,15.82
2023-04-18T07:52:02.172Z,15.85
2023-04-18T07:55:04.222Z,15.80
2023-04-18T07:58:06.004Z,15.90
2023-04-18T08:01:09.009Z,16.15
2023-04-18T08:04:12.235Z,16.52
2023-04-18T08:07:14.051Z,16.82
2023-04-18T08:10:16.083Z,17.21
2023-04-18T08:13:19.201Z,17.56
2023-04-18T08:16:21.277Z,17.89
2023-04-18T08:19:24.347Z,18.07
2023-04-18T08:22:26.106Z,18.35
2023-04-18T08:25:30.019Z,18.60
2023-04-18T08:28:34.778Z,18.27
2023-04-18T08:31:36.698Z,18.60
2023-04-18T08:34:38.527Z,18.72
2023-04-18T08:37:40.445Z,18.86
2023-04-18T08:40:43.516Z,18.86
2023-04-18T08:43:48.714Z,18.69
2023-04-18T08:46:50.884Z,18.47
2023-04-18T08:49:53.770Z,18.10
2023-04-18T08:52:56.282Z,18.38
2023-04-18T08:56:00.330Z,18.19
2023-04-18T08:59:02.835Z,18.12
2023-04-18T09:02:08.828Z,18.12
2023-04-18T09:05:21.749Z,18.35
2023-04-18T09:08:27.370Z,18.48
2023-04-18T09:11:34.607Z,18.23
2023-04-18T09:14:37.417Z,18.59
2023-04-18T09:17:45.617Z,19.17
2023-04-18T09:20:49.862Z,19.71
2023-04-18T09:24:16.231Z,20.01
2023-04-18T09:27:18.883Z,20.28
2023-04-18T09:30:30.873Z,20.68
2023-04-18T09:33:33.070Z,20.83
2023-04-18T09:36:37.371Z,20.67
2023-04-18T09:39:44.110Z,20.84
2023-04-18T09:42:46.794Z,20.98
2023-04-18T09:45:49.111Z,21.16
2023-04-18T09:48:51.054Z,21.18
2023-04-18T09:51:54.722Z,20.97
2023-04-18T09:54:59.941Z,21.28
2023-04-18T09:58:04.226Z,21.49
2023-04-18T10:01:06.405Z,21.28
2023-04-18T10:04:09.757Z,21.34
2023-04-18T10:07:11.687Z,21.22
2023-04-18T10:10:13.986Z,21.27
2023-04-18T10:13:18.853Z,21.40
2023-04-18T10:16:21.154Z,21.52
2023-04-18T10:19:28.290Z,21.40
2023-04-18T10:22:33.521Z,21.60
2023-04-18T10:25:35.306Z,21.39
2023-04-18T10:28:57.291Z,21.32
2023-04-18T10:32:06.875Z,21.05
2023-04-18T10:35:11.673Z,20.78
2023-04-18T10:38:17.400Z,20.50
2023-04-18T10:41:22.063Z,20.14
2023-04-18T10:44:27.121Z,20.19
2023-04-18T10:47:29.122Z,20.54
2023-04-18T10:50:31.188Z,20.72
2023-04-18T10:53:33.176Z,20.65
2023-04-18T10:56:35.229Z,20.65
2023-04-18T10:59:43.625Z,20.55
2023-04-18T11:02:51.586Z,20.60
2023-04-18T11:06:01.714Z,20.62
2023-04-18T11:09:14.084Z,20.85
2023-04-18T11:12:16.373Z,20.76
2023-04-18T11:15:23.595Z,20.67
2023-04-18T11:18:39.066Z,20.78
2023-04-18T11:21:41.089Z,20.88
2023-04-18T11:24:43.146Z,20.63
2023-04-18T11:27:46.675Z,20.71
2023-04-18T11:30:48.715Z,20.80
2023-04-18T11:33:51.810Z,20.52
2023-04-18T11:36:53.625Z,20.45
2023-04-18T11:39:55.915Z,20.20
2023-04-18T11:43:01.813Z,19.99
2023-04-18T11:46:03.675Z,19.67
2023-04-18T11:49:05.624Z,19.58
2023-04-18T11:52:16.501Z,19.70
2023-04-18T11:55:24.725Z,19.60
2023-04-18T11:58:33.896Z,19.26
2023-04-18T12:01:35.770Z,19.05
2023-04-18T12:05:00.253Z,19.13
2023-04-18T12:08:13.321Z,18.97
2023-04-18T12:11:23.328Z,18.78
2023-04-18T12:14:25.648Z,18.52
2023-04-18T12:17:28.752Z,18.28
2023-04-18T12:20:58.631Z,18.33
2023-04-18T12:24:15.411Z,18.21
2023-04-18T12:27:17.337Z,18.28
2023-04-18T12:30:21.493Z,17.85
2023-04-18T12:33:23.638Z,17.78
2023-04-18T12:36:28.479Z,17.94
2023-04-18T12:39:30.274Z,18.15
2023-04-18T12:42:33.658Z,18.14
2023-04-18T12:45:36.106Z,18.04
2023-04-18T12:48:37.842Z,17.95
2023-04-18T12:51:40.669Z,17.82
2023-04-18T12:54:42.461Z,17.76
2023-04-18T12:57:44.680Z,17.75
2023-04-18T13:00:47.573Z,17.88
2023-04-18T13:03:59.926Z,17.93
2023-04-18T13:07:07.423Z,17.82
2023-04-18T13:10:18.709Z,17.68
2023-04-18T13:13:20.531Z,17.87
2023-04-18T13:16:22.696Z,18.03
2023-04-18T13:19:24.676Z,17.99
2023-04-18T13:22:28.614Z,18.05
2023-04-18T13:25:30.612Z,17.91
2023-04-18T13:28:32.694Z,17.86
2023-04-18T13:31:34.408Z,17.97
2023-04-18T13:34:42.794Z,17.65
2023-04-18T13:37:44.602Z,17.87
2023-04-18T13:40:46.451Z,17.90
2023-04-18T13:43:48.247Z,17.79
2023-04-18T13:46:50.025Z,17.66
2023-04-18T13:49:52.049Z,17.80
2023-04-18T13:52:54.785Z,17.67
2023-04-18T13:55:57.006Z,17.77
2023-04-18T13:58:58.861Z,17.83
2023-04-18T14:02:00.961Z,17.43
2023-04-18T14:05:03.033Z,17.57
2023-04-18T14:08:05.419Z,17.64
2023-04-18T14:11:07.372Z,17.46
2023-04-18T14:14:09.287Z,17.41
2023-04-18T14:17:11.399Z,17.49
2023-04-18T14:20:15.635Z,17.64
2023-04-18T14:23:17.584Z,17.61
2023-04-18T14:26:19.992Z,17.58
2023-04-18T14:29:21.719Z,17.56
2023-04-18T14:32:23.694Z,17.54
2023-04-18T14:35:25.515Z,17.52
2023-04-18T14:38:27.377Z,17.48
2023-04-18T14:41:29.360Z,17.40
2023-04-18T14:44:31.486Z,17.42
2023-04-18T14:47:34.740Z,17.55
2023-04-18T14:50:38.562Z,17.54
2023-04-18T14:53:40.274Z,17.39
2023-04-18T14:56:42.086Z,17.31
2023-04-18T14:59:43.859Z,17.22
2023-04-18T15:02:45.880Z,17.21
2023-04-18T15:05:49.166Z,17.24
2023-04-18T15:08:52.697Z,17.17
2023-04-18T15:11:54.577Z,17.24
2023-04-18T15:14:56.381Z,17.19
2023-04-18T15:17:58.164Z,17.35
2023-04-18T15:21:00.245Z,16.98
2023-04-18T15:24:02.058Z,17.13
2023-04-18T15:27:04.027Z,17.11
2023-04-18T15:30:07.895Z,16.97
2023-04-18T15:33:11.173Z,17.12
2023-04-18T15:36:13.018Z,17.08
2023-04-18T15:39:15.142Z,17.16
2023-04-18T15:42:16.944Z,17.06
2023-04-18T15:45:18.964Z,17.03
2023-04-18T15:48:20.842Z,16.98
2023-04-18T15:51:27.535Z,17.01
2023-04-18T15:54:29.305Z,16.96
2023-04-18T15:57:32.109Z,16.97
2023-04-18T16:00:33.929Z,16.86
2023-04-18T16:03:36.251Z,16.91
2023-04-18T16:06:38.184Z,16.86
2023-04-18T16:09:39.925Z,16.66
2023-04-18T16:12:41.840Z,16.72
2023-04-18T16:15:43.693Z,16.85
2023-04-18T16:18:45.780Z,16.68
2023-04-18T16:21:48.954Z,16.65
2023-04-18T16:24:50.898Z,16.62
2023-04-18T16:27:52.813Z,16.65
2023-04-18T16:30:55.758Z,16.51
2023-04-18T16:33:57.810Z,16.47
2023-04-18T16:37:00.165Z,16.61
2023-04-18T16:40:05.173Z,16.47
2023-04-18T16:43:06.949Z,16.46
2023-04-18T16:46:08.762Z,16.65
2023-04-18T16:49:10.642Z,16.66
2023-04-18T16:52:19.666Z,16.58
2023-04-18T16:55:21.605Z,16.52
2023-04-18T16:58:23.783Z,16.49
2023-04-18T17:01:25.690Z,16.52
2023-04-18T17:04:28.789Z,16.59
2023-04-18T17:07:30.901Z,16.56
2023-04-18T17:10:33.003Z,16.54
2023-04-18T17:13:36.035Z,16.38
2023-04-18T17:16:39.567Z,16.31
2023-04-18T17:19:41.608Z,16.08
2023-04-18T17:22:43.830Z,16.27
2023-04-18T17:25:46.269Z,16.13
2023-04-18T17:28:48.022Z,15.93
2023-04-18T17:31:49.887Z,16.12
2023-04-18T17:34:51.759Z,16.07
2023-04-18T17:37:53.521Z,16.11
2023-04-18T17:40:59.931Z,16.12
2023-04-18T17:44:01.706Z,16.02
2023-04-18T17:47:03.602Z,16.10
2023-04-18T17:50:06.925Z,16.12
2023-04-18T17:53:08.652Z,15.93
2023-04-18T17:56:10.451Z,15.97
2023-04-18T17:59:12.470Z,16.01
2023-04-18T18:02:14.717Z,15.89
2023-04-18T18:05:16.754Z,15.80
2023-04-18T18:08:18.573Z,15.69
2023-04-18T18:11:21.458Z,15.70
2023-04-18T18:14:23.406Z,15.63
2023-04-18T18:17:25.172Z,15.57
2023-04-18T18:20:27.564Z,15.60
2023-04-18T18:23:29.432Z,15.55
2023-04-18T18:26:31.211Z,15.54
2023-04-18T18:29:33.109Z,15.53
2023-04-18T18:32:34.890Z,15.41
2023-04-18T18:35:36.748Z,15.48
2023-04-18T18:38:38.464Z,15.15
2023-04-18T18:41:40.516Z,15.29
2023-04-18T18:44:42.247Z,15.19
2023-04-18T18:47:44.020Z,15.33
2023-04-18T18:50:45.725Z,15.31
2023-04-18T18:53:47.456Z,15.25
2023-04-18T18:56:49.166Z,15.17
2023-04-18T18:59:50.900Z,15.24
2023-04-18T19:02:52.982Z,15.17
2023-04-18T19:05:58.832Z,15.16
2023-04-18T19:09:00.797Z,15.15
2023-04-18T19:12:06.215Z,15.13
2023-04-18T19:15:08.863Z,15.16
2023-04-18T19:18:10.960Z,15.09
2023-04-18T19:21:15.967Z,15.11
2023-04-18T19:24:18.079Z,15.03
2023-04-18T19:27:19.810Z,15.13
2023-04-18T19:30:21.698Z,14.98
2023-04-18T19:33:24.590Z,14.98
2023-04-18T19:36:26.760Z,14.98
2023-04-18T19:39:28.811Z,14.84
2023-04-18T19:42:30.914Z,14.99
2023-04-18T19:45:32.790Z,14.83
2023-04-18T19:48:37.668Z,14.95
2023-04-18T19:51:40.857Z,14.84
2023-04-18T19:54:42.601Z,14.88
2023-04-18T19:57:44.375Z,14.96
2023-04-18T20:00:46.383Z,14.89
2023-04-18T20:03:48.342Z,14.76
2023-04-18T20:06:50.357Z,14.76
2023-04-18T20:09:52.700Z,14.70
2023-04-18T20:12:54.462Z,14.54
2023-04-18T20:15:56.288Z,14.63
2023-04-18T20:18:58.097Z,14.58
2023-04-18T20:22:01.345Z,14.55
2023-04-18T20:25:05.069Z,14.62
2023-04-18T20:28:07.000Z,14.52
2023-04-18T20:31:08.810Z,14.22
2023-04-18T20:34:10.627Z,14.54
2023-04-18T20:37:16.114Z,14.52
2023-04-18T20:40:18.866Z,14.53
2023-04-18T20:43:20.931Z,14.56
2023-04-18T20:46:22.669Z,14.46
2023-04-18T20:49:24.462Z,14.42
2023-04-18T20:52:26.241Z,14.40
2023-04-18T20:55:28.003Z,14.39
2023-04-18T20:58:30.099Z,14.41
2023-04-18T21:01:31.902Z,14.25
2023-04-18T21:04:33.945Z,14.29
2023-04-18T21:07:36.306Z,14.13
2023-04-18T21:10:38.300Z,14.25
2023-04-18T21:13:40.091Z,14.34
2023-04-18T21:16:42.014Z,14.26
2023-04-18T21:19:47.441Z,14.36
2023-04-18T21:22:49.199Z,13.91
2023-04-18T21:25:50.914Z,14.36
2023-04-18T21:29:04.905Z,14.43
2023-04-18T21:32:06.657Z,14.29
2023-04-18T21:35:08.805Z,14.39
2023-04-18T21:38:10.712Z,14.35
2023-04-18T21:41:16.996Z,14.22
2023-04-18T21:44:18.946Z,14.37
2023-04-18T21:47:20.855Z,14.34
2023-04-18T21:50:22.779Z,14.25
2023-04-18T21:53:24.647Z,14.21
2023-04-18T21:56:26.844Z,14.16
2023-04-18T21:59:28.960Z,13.94
2023-04-18T22:02:30.870Z,13.98
2023-04-18T22:05:33.487Z,13.90
2023-04-18T22:08:35.429Z,13.91
2023-04-18T22:11:37.325Z,13.96
2023-04-18T22:14:40.421Z,13.63
2023-04-18T22:17:42.479Z,13.74
2023-04-18T22:20:45.309Z,13.65
2023-04-18T22:23:47.252Z,13.62
2023-04-18T22:26:49.040Z,13.56
2023-04-18T22:29:51.104Z,13.52
2023-04-18T22:32:52.898Z,13.40
2023-04-18T22:35:55.668Z,13.21
2023-04-18T22:38:57.646Z,13.05
2023-04-18T22:41:59.383Z,13.19
2023-04-18T22:45:01.504Z,13.09
2023-04-18T22:48:03.626Z,13.11
2023-04-18T22:51:06.230Z,12.87
2023-04-18T22:54:07.905Z,13.03
2023-04-18T22:57:09.685Z,12.97
2023-04-18T23:00:12.470Z,12.82
2023-04-18T23:03:14.602Z,12.72
2023-04-18T23:06:16.519Z,12.89
2023-04-18T23:09:19.725Z,12.85
2023-04-18T23:12:22.067Z,12.68
2023-04-18T23:15:24.202Z,12.74
2023-04-18T23:18:29.983Z,12.71
2023-04-18T23:21:32.237Z,12.50
2023-04-18T23:24:34.097Z,12.57
2023-04-18T23:27:36.056Z,12.55
2023-04-18T23:30:37.920Z,12.49
2023-04-18T23:33:39.676Z,12.35
2023-04-18T23:36:42.437Z,12.38
2023-04-18T23:39:44.306Z,12.34
2023-04-18T23:42:47.182Z,12.36
2023-04-18T23:45:48.967Z,12.30
2023-04-18T23:48:51.028Z,12.39
2023-04-18T23:51:52.777Z,12.19
2023-04-18T23:54:54.729Z,12.35
2023-04-18T23:57:56.476Z,12.26
